sensor_id;sensor_type;location;lat;lon;timestamp;P1;durP1;ratioP1;P2;durP2;ratioP2
24407;SDS011;12542;50.924;4.516;2023-12-28T00:01:28;6.13;;;2.60;;
24407;SDS011;12542;50.924;4.516;2023-12-28T00:03:54;5.65;;;2.10;;
24407;SDS011;12542;50.924;4.516;2023-12-28T00:06:19;3.40;;;2.08;;
24407;SDS011;12542;50.924;4.516;2023-12-28T00:08:45;7.07;;;2.40;;
24407;SDS011;12542;50.924;4.516;2023-12-28T00:11:11;5.28;;;2.50;;
24407;SDS011;12542;50.924;4.516;2023-12-28T00:13:36;3.90;;;1.92;;
24407;SDS011;12542;50.924;4.516;2023-12-28T00:16:02;6.55;;;2.33;;
24407;SDS011;12542;50.924;4.516;2023-12-28T00:18:28;5.20;;;2.20;;
24407;SDS011;12542;50.924;4.516;2023-12-28T00:20:53;3.35;;;2.03;;
24407;SDS011;12542;50.924;4.516;2023-12-28T00:23:19;3.92;;;2.40;;
24407;SDS011;12542;50.924;4.516;2023-12-28T00:25:47;4.30;;;2.20;;
24407;SDS011;12542;50.924;4.516;2023-12-28T00:28:13;2.45;;;1.65;;
24407;SDS011;12542;50.924;4.516;2023-12-28T00:30:39;8.23;;;3.22;;
24407;SDS011;12542;50.924;4.516;2023-12-28T00:33:04;6.75;;;2.67;;
24407;SDS011;12542;50.924;4.516;2023-12-28T00:35:30;3.80;;;1.98;;
24407;SDS011;12542;50.924;4.516;2023-12-28T00:37:58;3.78;;;2.10;;
24407;SDS011;12542;50.924;4.516;2023-12-28T00:40:29;5.90;;;2.85;;
24407;SDS011;12542;50.924;4.516;2023-12-28T00:42:55;5.10;;;2.70;;
24407;SDS011;12542;50.924;4.516;2023-12-28T00:45:20;5.68;;;2.50;;
24407;SDS011;12542;50.924;4.516;2023-12-28T00:47:46;5.25;;;2.28;;
24407;SDS011;12542;50.924;4.516;2023-12-28T00:50:12;5.57;;;2.50;;
24407;SDS011;12542;50.924;4.516;2023-12-28T00:52:39;6.75;;;2.25;;
24407;SDS011;12542;50.924;4.516;2023-12-28T00:55:05;5.03;;;2.78;;
24407;SDS011;12542;50.924;4.516;2023-12-28T00:57:32;5.93;;;2.58;;
24407;SDS011;12542;50.924;4.516;2023-12-28T00:59:58;3.63;;;2.22;;
24407;SDS011;12542;50.924;4.516;2023-12-28T01:02:24;4.03;;;2.13;;
24407;SDS011;12542;50.924;4.516;2023-12-28T01:04:52;6.18;;;2.25;;
24407;SDS011;12542;50.924;4.516;2023-12-28T01:07:17;8.23;;;2.25;;
24407;SDS011;12542;50.924;4.516;2023-12-28T01:09:43;6.20;;;2.38;;
24407;SDS011;12542;50.924;4.516;2023-12-28T01:12:09;4.65;;;1.85;;
24407;SDS011;12542;50.924;4.516;2023-12-28T01:14:34;6.22;;;2.08;;
24407;SDS011;12542;50.924;4.516;2023-12-28T01:17:00;3.75;;;2.05;;
24407;SDS011;12542;50.924;4.516;2023-12-28T01:19:26;5.80;;;2.40;;
24407;SDS011;12542;50.924;4.516;2023-12-28T01:21:52;6.38;;;2.30;;
24407;SDS011;12542;50.924;4.516;2023-12-28T01:24:17;5.75;;;2.05;;
24407;SDS011;12542;50.924;4.516;2023-12-28T01:26:43;6.18;;;2.33;;
24407;SDS011;12542;50.924;4.516;2023-12-28T01:29:09;5.40;;;2.20;;
24407;SDS011;12542;50.924;4.516;2023-12-28T01:31:35;2.78;;;1.90;;
24407;SDS011;12542;50.924;4.516;2023-12-28T01:34:00;9.32;;;2.33;;
24407;SDS011;12542;50.924;4.516;2023-12-28T01:36:28;6.22;;;2.17;;
24407;SDS011;12542;50.924;4.516;2023-12-28T01:38:55;6.25;;;2.65;;
24407;SDS011;12542;50.924;4.516;2023-12-28T01:41:21;7.88;;;2.30;;
24407;SDS011;12542;50.924;4.516;2023-12-28T01:43:47;5.90;;;2.22;;
24407;SDS011;12542;50.924;4.516;2023-12-28T01:46:19;6.45;;;2.40;;
24407;SDS011;12542;50.924;4.516;2023-12-28T01:48:47;6.78;;;2.83;;
24407;SDS011;12542;50.924;4.516;2023-12-28T01:51:15;4.55;;;2.40;;
24407;SDS011;12542;50.924;4.516;2023-12-28T01:53:41;2.78;;;1.80;;
24407;SDS011;12542;50.924;4.516;2023-12-28T01:56:12;7.13;;;2.10;;
24407;SDS011;12542;50.924;4.516;2023-12-28T01:58:38;4.90;;;2.10;;
24407;SDS011;12542;50.924;4.516;2023-12-28T02:01:06;9.20;;;2.05;;
24407;SDS011;12542;50.924;4.516;2023-12-28T02:03:32;8.13;;;2.35;;
24407;SDS011;12542;50.924;4.516;2023-12-28T02:05:59;5.72;;;2.10;;
24407;SDS011;12542;50.924;4.516;2023-12-28T02:08:26;5.57;;;2.00;;
24407;SDS011;12542;50.924;4.516;2023-12-28T02:10:52;3.65;;;1.83;;
24407;SDS011;12542;50.924;4.516;2023-12-28T02:13:18;9.35;;;2.17;;
24407;SDS011;12542;50.924;4.516;2023-12-28T02:15:43;4.50;;;1.80;;
24407;SDS011;12542;50.924;4.516;2023-12-28T02:18:17;5.57;;;1.63;;
24407;SDS011;12542;50.924;4.516;2023-12-28T02:20:46;3.65;;;1.70;;
24407;SDS011;12542;50.924;4.516;2023-12-28T02:23:13;7.35;;;2.22;;
24407;SDS011;12542;50.924;4.516;2023-12-28T02:25:40;5.65;;;2.20;;
24407;SDS011;12542;50.924;4.516;2023-12-28T02:28:05;5.90;;;2.05;;
24407;SDS011;12542;50.924;4.516;2023-12-28T02:30:31;3.63;;;1.67;;
24407;SDS011;12542;50.924;4.516;2023-12-28T02:33:11;6.05;;;1.50;;
24407;SDS011;12542;50.924;4.516;2023-12-28T02:35:45;4.68;;;2.00;;
24407;SDS011;12542;50.924;4.516;2023-12-28T02:38:20;3.55;;;1.33;;
24407;SDS011;12542;50.924;4.516;2023-12-28T02:40:48;4.35;;;1.38;;
24407;SDS011;12542;50.924;4.516;2023-12-28T02:43:14;5.10;;;1.70;;
24407;SDS011;12542;50.924;4.516;2023-12-28T02:45:40;4.18;;;1.63;;
24407;SDS011;12542;50.924;4.516;2023-12-28T02:48:06;4.32;;;1.60;;
24407;SDS011;12542;50.924;4.516;2023-12-28T02:50:32;8.38;;;1.88;;
24407;SDS011;12542;50.924;4.516;2023-12-28T02:52:59;6.97;;;2.10;;
24407;SDS011;12542;50.924;4.516;2023-12-28T02:55:24;5.32;;;1.63;;
24407;SDS011;12542;50.924;4.516;2023-12-28T02:57:51;7.22;;;2.00;;
24407;SDS011;12542;50.924;4.516;2023-12-28T03:00:24;7.20;;;2.38;;
24407;SDS011;12542;50.924;4.516;2023-12-28T03:02:49;9.98;;;2.47;;
24407;SDS011;12542;50.924;4.516;2023-12-28T03:05:15;6.32;;;1.73;;
24407;SDS011;12542;50.924;4.516;2023-12-28T03:07:41;8.45;;;2.00;;
24407;SDS011;12542;50.924;4.516;2023-12-28T03:10:07;2.78;;;1.48;;
24407;SDS011;12542;50.924;4.516;2023-12-28T03:12:34;4.00;;;1.83;;
24407;SDS011;12542;50.924;4.516;2023-12-28T03:14:59;5.38;;;1.60;;
24407;SDS011;12542;50.924;4.516;2023-12-28T03:17:27;5.50;;;1.90;;
24407;SDS011;12542;50.924;4.516;2023-12-28T03:19:54;7.35;;;2.30;;
24407;SDS011;12542;50.924;4.516;2023-12-28T03:22:19;4.95;;;1.60;;
24407;SDS011;12542;50.924;4.516;2023-12-28T03:24:46;4.60;;;1.90;;
24407;SDS011;12542;50.924;4.516;2023-12-28T03:27:11;6.47;;;1.88;;
24407;SDS011;12542;50.924;4.516;2023-12-28T03:29:37;7.25;;;1.55;;
24407;SDS011;12542;50.924;4.516;2023-12-28T03:32:03;7.20;;;1.55;;
24407;SDS011;12542;50.924;4.516;2023-12-28T03:34:29;7.88;;;1.70;;
24407;SDS011;12542;50.924;4.516;2023-12-28T03:36:55;9.30;;;2.00;;
24407;SDS011;12542;50.924;4.516;2023-12-28T03:39:22;5.70;;;1.70;;
24407;SDS011;12542;50.924;4.516;2023-12-28T03:41:48;6.97;;;2.00;;
24407;SDS011;12542;50.924;4.516;2023-12-28T03:44:14;7.88;;;1.88;;
24407;SDS011;12542;50.924;4.516;2023-12-28T03:46:39;8.13;;;1.90;;
24407;SDS011;12542;50.924;4.516;2023-12-28T03:49:05;8.27;;;1.60;;
24407;SDS011;12542;50.924;4.516;2023-12-28T03:51:31;12.80;;;1.95;;
24407;SDS011;12542;50.924;4.516;2023-12-28T03:53:57;13.25;;;2.05;;
24407;SDS011;12542;50.924;4.516;2023-12-28T03:56:23;8.05;;;2.38;;
24407;SDS011;12542;50.924;4.516;2023-12-28T03:58:50;8.88;;;1.58;;
24407;SDS011;12542;50.924;4.516;2023-12-28T04:01:20;8.75;;;1.65;;
24407;SDS011;12542;50.924;4.516;2023-12-28T04:03:47;12.55;;;1.80;;
24407;SDS011;12542;50.924;4.516;2023-12-28T04:06:13;6.35;;;1.58;;
24407;SDS011;12542;50.924;4.516;2023-12-28T04:08:42;9.35;;;1.77;;
24407;SDS011;12542;50.924;4.516;2023-12-28T04:11:08;9.25;;;1.67;;
24407;SDS011;12542;50.924;4.516;2023-12-28T04:13:35;6.35;;;1.83;;
24407;SDS011;12542;50.924;4.516;2023-12-28T04:16:01;6.53;;;1.75;;
24407;SDS011;12542;50.924;4.516;2023-12-28T04:18:27;8.95;;;1.98;;
24407;SDS011;12542;50.924;4.516;2023-12-28T04:20:53;8.65;;;1.88;;
24407;SDS011;12542;50.924;4.516;2023-12-28T04:23:18;11.57;;;2.20;;
24407;SDS011;12542;50.924;4.516;2023-12-28T04:25:44;9.60;;;1.60;;
24407;SDS011;12542;50.924;4.516;2023-12-28T04:28:10;13.07;;;2.05;;
24407;SDS011;12542;50.924;4.516;2023-12-28T04:30:35;8.15;;;2.00;;
24407;SDS011;12542;50.924;4.516;2023-12-28T04:33:01;5.47;;;1.30;;
24407;SDS011;12542;50.924;4.516;2023-12-28T04:35:28;9.85;;;1.70;;
24407;SDS011;12542;50.924;4.516;2023-12-28T04:37:54;16.35;;;3.35;;
24407;SDS011;12542;50.924;4.516;2023-12-28T04:40:19;8.93;;;2.17;;
24407;SDS011;12542;50.924;4.516;2023-12-28T04:42:45;8.38;;;2.50;;
24407;SDS011;12542;50.924;4.516;2023-12-28T04:45:11;11.07;;;1.70;;
24407;SDS011;12542;50.924;4.516;2023-12-28T04:47:37;11.80;;;2.00;;
24407;SDS011;12542;50.924;4.516;2023-12-28T04:50:03;15.73;;;2.33;;
24407;SDS011;12542;50.924;4.516;2023-12-28T04:52:30;13.50;;;1.95;;
24407;SDS011;12542;50.924;4.516;2023-12-28T04:54:55;6.78;;;1.60;;
24407;SDS011;12542;50.924;4.516;2023-12-28T04:57:21;9.75;;;1.92;;
24407;SDS011;12542;50.924;4.516;2023-12-28T04:59:49;9.55;;;2.10;;
24407;SDS011;12542;50.924;4.516;2023-12-28T05:02:15;9.52;;;1.60;;
24407;SDS011;12542;50.924;4.516;2023-12-28T05:04:41;9.77;;;1.95;;
24407;SDS011;12542;50.924;4.516;2023-12-28T05:07:07;10.93;;;1.90;;
24407;SDS011;12542;50.924;4.516;2023-12-28T05:09:33;11.57;;;2.25;;
24407;SDS011;12542;50.924;4.516;2023-12-28T05:11:58;9.85;;;2.15;;
24407;SDS011;12542;50.924;4.516;2023-12-28T05:14:24;12.05;;;2.88;;
24407;SDS011;12542;50.924;4.516;2023-12-28T05:16:50;13.10;;;2.13;;
24407;SDS011;12542;50.924;4.516;2023-12-28T05:19:16;13.65;;;2.75;;
24407;SDS011;12542;50.924;4.516;2023-12-28T05:21:41;8.93;;;1.80;;
24407;SDS011;12542;50.924;4.516;2023-12-28T05:24:07;10.13;;;1.80;;
24407;SDS011;12542;50.924;4.516;2023-12-28T05:26:33;12.57;;;2.50;;
24407;SDS011;12542;50.924;4.516;2023-12-28T05:28:59;11.25;;;2.42;;
24407;SDS011;12542;50.924;4.516;2023-12-28T05:31:25;12.20;;;1.38;;
24407;SDS011;12542;50.924;4.516;2023-12-28T05:33:51;10.23;;;1.80;;
24407;SDS011;12542;50.924;4.516;2023-12-28T05:36:16;13.10;;;2.10;;
24407;SDS011;12542;50.924;4.516;2023-12-28T05:38:42;10.70;;;2.97;;
24407;SDS011;12542;50.924;4.516;2023-12-28T05:41:11;10.48;;;1.83;;
24407;SDS011;12542;50.924;4.516;2023-12-28T05:43:37;13.20;;;2.10;;
24407;SDS011;12542;50.924;4.516;2023-12-28T05:46:03;9.82;;;2.13;;
24407;SDS011;12542;50.924;4.516;2023-12-28T05:48:29;9.70;;;2.40;;
24407;SDS011;12542;50.924;4.516;2023-12-28T05:50:56;12.00;;;2.63;;
24407;SDS011;12542;50.924;4.516;2023-12-28T05:53:23;7.75;;;1.70;;
24407;SDS011;12542;50.924;4.516;2023-12-28T05:55:52;9.70;;;1.60;;
24407;SDS011;12542;50.924;4.516;2023-12-28T05:58:18;13.30;;;2.20;;
24407;SDS011;12542;50.924;4.516;2023-12-28T06:00:44;13.68;;;2.10;;
24407;SDS011;12542;50.924;4.516;2023-12-28T06:03:13;7.82;;;1.70;;
24407;SDS011;12542;50.924;4.516;2023-12-28T06:05:39;11.88;;;2.10;;
24407;SDS011;12542;50.924;4.516;2023-12-28T06:08:04;15.35;;;2.20;;
24407;SDS011;12542;50.924;4.516;2023-12-28T06:10:30;14.57;;;2.38;;
24407;SDS011;12542;50.924;4.516;2023-12-28T06:12:56;10.82;;;1.95;;
24407;SDS011;12542;50.924;4.516;2023-12-28T06:15:22;13.80;;;2.03;;
24407;SDS011;12542;50.924;4.516;2023-12-28T06:17:50;16.70;;;2.33;;
24407;SDS011;12542;50.924;4.516;2023-12-28T06:20:15;15.43;;;2.88;;
24407;SDS011;12542;50.924;4.516;2023-12-28T06:22:41;7.45;;;1.80;;
24407;SDS011;12542;50.924;4.516;2023-12-28T06:25:07;13.50;;;2.60;;
24407;SDS011;12542;50.924;4.516;2023-12-28T06:27:33;8.38;;;1.85;;
24407;SDS011;12542;50.924;4.516;2023-12-28T06:29:59;7.13;;;1.75;;
24407;SDS011;12542;50.924;4.516;2023-12-28T06:32:24;12.85;;;2.13;;
24407;SDS011;12542;50.924;4.516;2023-12-28T06:34:52;15.73;;;2.05;;
24407;SDS011;12542;50.924;4.516;2023-12-28T06:37:18;11.85;;;2.00;;
24407;SDS011;12542;50.924;4.516;2023-12-28T06:39:43;14.70;;;1.90;;
24407;SDS011;12542;50.924;4.516;2023-12-28T06:42:09;11.15;;;1.85;;
24407;SDS011;12542;50.924;4.516;2023-12-28T06:44:34;18.15;;;2.50;;
24407;SDS011;12542;50.924;4.516;2023-12-28T06:47:00;13.30;;;1.83;;
24407;SDS011;12542;50.924;4.516;2023-12-28T06:49:26;15.30;;;2.30;;
24407;SDS011;12542;50.924;4.516;2023-12-28T06:51:51;17.30;;;2.58;;
24407;SDS011;12542;50.924;4.516;2023-12-28T06:54:17;14.25;;;2.17;;
24407;SDS011;12542;50.924;4.516;2023-12-28T06:56:43;16.80;;;2.55;;
24407;SDS011;12542;50.924;4.516;2023-12-28T06:59:09;14.68;;;2.15;;
24407;SDS011;12542;50.924;4.516;2023-12-28T07:01:39;15.10;;;2.13;;
24407;SDS011;12542;50.924;4.516;2023-12-28T07:04:05;13.00;;;2.08;;
24407;SDS011;12542;50.924;4.516;2023-12-28T07:06:30;16.98;;;1.90;;
24407;SDS011;12542;50.924;4.516;2023-12-28T07:08:56;14.82;;;2.60;;
24407;SDS011;12542;50.924;4.516;2023-12-28T07:11:22;12.10;;;2.10;;
24407;SDS011;12542;50.924;4.516;2023-12-28T07:13:48;11.82;;;2.17;;
24407;SDS011;12542;50.924;4.516;2023-12-28T07:16:13;13.65;;;2.78;;
24407;SDS011;12542;50.924;4.516;2023-12-28T07:18:39;18.98;;;2.53;;
24407;SDS011;12542;50.924;4.516;2023-12-28T07:21:05;12.20;;;2.10;;
24407;SDS011;12542;50.924;4.516;2023-12-28T07:23:34;13.93;;;2.17;;
24407;SDS011;12542;50.924;4.516;2023-12-28T07:26:00;26.88;;;3.55;;
24407;SDS011;12542;50.924;4.516;2023-12-28T07:28:26;16.40;;;2.58;;
24407;SDS011;12542;50.924;4.516;2023-12-28T07:30:52;10.70;;;2.05;;
24407;SDS011;12542;50.924;4.516;2023-12-28T07:33:19;11.73;;;2.72;;
24407;SDS011;12542;50.924;4.516;2023-12-28T07:35:45;10.23;;;2.65;;
24407;SDS011;12542;50.924;4.516;2023-12-28T07:38:13;13.82;;;2.20;;
24407;SDS011;12542;50.924;4.516;2023-12-28T07:40:38;11.80;;;2.00;;
24407;SDS011;12542;50.924;4.516;2023-12-28T07:43:04;16.92;;;2.95;;
24407;SDS011;12542;50.924;4.516;2023-12-28T07:45:30;19.10;;;2.90;;
24407;SDS011;12542;50.924;4.516;2023-12-28T07:47:58;18.50;;;2.65;;
24407;SDS011;12542;50.924;4.516;2023-12-28T07:50:24;16.33;;;2.55;;
24407;SDS011;12542;50.924;4.516;2023-12-28T07:52:50;21.05;;;3.58;;
24407;SDS011;12542;50.924;4.516;2023-12-28T07:55:18;13.48;;;1.80;;
24407;SDS011;12542;50.924;4.516;2023-12-28T07:57:44;15.85;;;2.38;;
24407;SDS011;12542;50.924;4.516;2023-12-28T08:00:10;12.25;;;2.25;;
24407;SDS011;12542;50.924;4.516;2023-12-28T08:02:37;14.45;;;2.38;;
24407;SDS011;12542;50.924;4.516;2023-12-28T08:05:03;25.05;;;2.45;;
24407;SDS011;12542;50.924;4.516;2023-12-28T08:07:29;21.48;;;3.05;;
24407;SDS011;12542;50.924;4.516;2023-12-28T08:09:55;14.77;;;2.67;;
24407;SDS011;12542;50.924;4.516;2023-12-28T08:12:20;13.13;;;2.38;;
24407;SDS011;12542;50.924;4.516;2023-12-28T08:14:47;11.65;;;2.42;;
24407;SDS011;12542;50.924;4.516;2023-12-28T08:17:12;10.02;;;1.48;;
24407;SDS011;12542;50.924;4.516;2023-12-28T08:19:40;17.50;;;2.40;;
24407;SDS011;12542;50.924;4.516;2023-12-28T08:22:06;19.77;;;2.40;;
24407;SDS011;12542;50.924;4.516;2023-12-28T08:24:32;15.55;;;1.98;;
24407;SDS011;12542;50.924;4.516;2023-12-28T08:26:58;10.88;;;1.73;;
24407;SDS011;12542;50.924;4.516;2023-12-28T08:29:25;18.02;;;3.03;;
24407;SDS011;12542;50.924;4.516;2023-12-28T08:31:51;14.55;;;2.38;;
24407;SDS011;12542;50.924;4.516;2023-12-28T08:34:17;15.27;;;3.28;;
24407;SDS011;12542;50.924;4.516;2023-12-28T08:36:43;10.95;;;2.05;;
24407;SDS011;12542;50.924;4.516;2023-12-28T08:39:08;15.15;;;2.38;;
24407;SDS011;12542;50.924;4.516;2023-12-28T08:41:34;14.15;;;2.75;;
24407;SDS011;12542;50.924;4.516;2023-12-28T08:44:00;25.92;;;5.15;;
24407;SDS011;12542;50.924;4.516;2023-12-28T08:46:26;13.57;;;1.92;;
24407;SDS011;12542;50.924;4.516;2023-12-28T08:48:52;14.15;;;2.55;;
24407;SDS011;12542;50.924;4.516;2023-12-28T08:51:18;12.88;;;2.15;;
24407;SDS011;12542;50.924;4.516;2023-12-28T08:53:44;16.60;;;3.50;;
24407;SDS011;12542;50.924;4.516;2023-12-28T08:56:13;18.92;;;2.58;;
24407;SDS011;12542;50.924;4.516;2023-12-28T08:58:41;15.85;;;3.03;;
24407;SDS011;12542;50.924;4.516;2023-12-28T09:01:07;14.95;;;2.50;;
24407;SDS011;12542;50.924;4.516;2023-12-28T09:03:33;13.10;;;2.13;;
24407;SDS011;12542;50.924;4.516;2023-12-28T09:05:58;14.93;;;3.58;;
24407;SDS011;12542;50.924;4.516;2023-12-28T09:08:24;18.98;;;2.63;;
24407;SDS011;12542;50.924;4.516;2023-12-28T09:10:50;13.05;;;2.55;;
24407;SDS011;12542;50.924;4.516;2023-12-28T09:13:15;16.20;;;2.17;;
24407;SDS011;12542;50.924;4.516;2023-12-28T09:15:44;18.85;;;2.92;;
24407;SDS011;12542;50.924;4.516;2023-12-28T09:18:11;13.82;;;2.92;;
24407;SDS011;12542;50.924;4.516;2023-12-28T09:20:39;14.93;;;2.15;;
24407;SDS011;12542;50.924;4.516;2023-12-28T09:23:05;13.38;;;2.50;;
24407;SDS011;12542;50.924;4.516;2023-12-28T09:25:31;15.27;;;2.45;;
24407;SDS011;12542;50.924;4.516;2023-12-28T09:27:56;18.63;;;2.20;;
24407;SDS011;12542;50.924;4.516;2023-12-28T09:30:22;18.23;;;2.38;;
24407;SDS011;12542;50.924;4.516;2023-12-28T09:32:48;14.93;;;2.75;;
24407;SDS011;12542;50.924;4.516;2023-12-28T09:35:14;19.08;;;3.58;;
24407;SDS011;12542;50.924;4.516;2023-12-28T09:37:39;9.98;;;2.70;;
24407;SDS011;12542;50.924;4.516;2023-12-28T09:40:05;14.30;;;2.25;;
24407;SDS011;12542;50.924;4.516;2023-12-28T09:42:36;15.65;;;2.10;;
24407;SDS011;12542;50.924;4.516;2023-12-28T09:45:09;17.40;;;2.85;;
24407;SDS011;12542;50.924;4.516;2023-12-28T09:47:35;18.00;;;2.85;;
24407;SDS011;12542;50.924;4.516;2023-12-28T09:50:04;17.63;;;2.53;;
24407;SDS011;12542;50.924;4.516;2023-12-28T09:52:31;16.40;;;2.58;;
24407;SDS011;12542;50.924;4.516;2023-12-28T09:54:56;16.20;;;2.55;;
24407;SDS011;12542;50.924;4.516;2023-12-28T09:57:22;15.60;;;2.47;;
24407;SDS011;12542;50.924;4.516;2023-12-28T09:59:48;12.90;;;2.60;;
24407;SDS011;12542;50.924;4.516;2023-12-28T10:02:16;16.27;;;3.60;;
24407;SDS011;12542;50.924;4.516;2023-12-28T10:04:43;19.20;;;3.60;;
24407;SDS011;12542;50.924;4.516;2023-12-28T10:07:08;11.85;;;2.38;;
24407;SDS011;12542;50.924;4.516;2023-12-28T10:09:34;18.38;;;2.30;;
24407;SDS011;12542;50.924;4.516;2023-12-28T10:12:00;14.95;;;3.00;;
24407;SDS011;12542;50.924;4.516;2023-12-28T10:14:26;18.13;;;2.67;;
24407;SDS011;12542;50.924;4.516;2023-12-28T10:16:52;19.70;;;7.93;;
24407;SDS011;12542;50.924;4.516;2023-12-28T10:19:21;17.10;;;4.82;;
24407;SDS011;12542;50.924;4.516;2023-12-28T10:21:47;17.63;;;5.70;;
24407;SDS011;12542;50.924;4.516;2023-12-28T10:24:13;25.15;;;5.00;;
24407;SDS011;12542;50.924;4.516;2023-12-28T10:26:39;13.90;;;3.33;;
24407;SDS011;12542;50.924;4.516;2023-12-28T10:29:05;19.70;;;7.88;;
24407;SDS011;12542;50.924;4.516;2023-12-28T10:31:31;20.67;;;5.55;;
24407;SDS011;12542;50.924;4.516;2023-12-28T10:33:59;15.57;;;5.85;;
24407;SDS011;12542;50.924;4.516;2023-12-28T10:36:28;28.98;;;7.07;;
24407;SDS011;12542;50.924;4.516;2023-12-28T10:38:53;25.48;;;6.60;;
24407;SDS011;12542;50.924;4.516;2023-12-28T10:41:20;22.00;;;6.88;;
24407;SDS011;12542;50.924;4.516;2023-12-28T10:44:03;30.15;;;13.43;;
24407;SDS011;12542;50.924;4.516;2023-12-28T10:46:33;29.35;;;15.55;;
24407;SDS011;12542;50.924;4.516;2023-12-28T10:49:09;37.33;;;12.50;;
24407;SDS011;12542;50.924;4.516;2023-12-28T10:51:42;21.58;;;7.15;;
24407;SDS011;12542;50.924;4.516;2023-12-28T10:57:09;22.17;;;12.30;;
24407;SDS011;12542;50.924;4.516;2023-12-28T11:00:09;26.05;;;7.53;;
24407;SDS011;12542;50.924;4.516;2023-12-28T11:02:42;18.23;;;4.22;;
24407;SDS011;12542;50.924;4.516;2023-12-28T11:05:11;23.10;;;3.35;;
24407;SDS011;12542;50.924;4.516;2023-12-28T11:07:38;20.30;;;3.97;;
24407;SDS011;12542;50.924;4.516;2023-12-28T11:10:06;19.95;;;5.63;;
24407;SDS011;12542;50.924;4.516;2023-12-28T11:12:32;12.73;;;3.67;;
24407;SDS011;12542;50.924;4.516;2023-12-28T11:15:00;23.25;;;6.78;;
24407;SDS011;12542;50.924;4.516;2023-12-28T11:17:28;22.20;;;4.80;;
24407;SDS011;12542;50.924;4.516;2023-12-28T11:19:56;17.92;;;4.88;;
24407;SDS011;12542;50.924;4.516;2023-12-28T11:22:23;21.95;;;7.15;;
24407;SDS011;12542;50.924;4.516;2023-12-28T11:24:53;16.45;;;2.90;;
24407;SDS011;12542;50.924;4.516;2023-12-28T11:27:19;15.05;;;4.65;;
24407;SDS011;12542;50.924;4.516;2023-12-28T11:29:47;12.45;;;2.70;;
24407;SDS011;12542;50.924;4.516;2023-12-28T11:32:13;19.65;;;3.08;;
24407;SDS011;12542;50.924;4.516;2023-12-28T11:34:39;13.98;;;2.70;;
24407;SDS011;12542;50.924;4.516;2023-12-28T11:37:14;14.48;;;2.20;;
24407;SDS011;12542;50.924;4.516;2023-12-28T11:39:45;22.85;;;6.72;;
24407;SDS011;12542;50.924;4.516;2023-12-28T11:42:18;22.42;;;6.78;;
24407;SDS011;12542;50.924;4.516;2023-12-28T11:44:46;40.80;;;18.45;;
24407;SDS011;12542;50.924;4.516;2023-12-28T11:47:20;29.80;;;11.07;;
24407;SDS011;12542;50.924;4.516;2023-12-28T11:49:47;20.38;;;8.70;;
24407;SDS011;12542;50.924;4.516;2023-12-28T11:52:26;24.42;;;10.70;;
24407;SDS011;12542;50.924;4.516;2023-12-28T11:54:54;16.20;;;5.78;;
24407;SDS011;12542;50.924;4.516;2023-12-28T11:57:20;22.25;;;3.55;;
24407;SDS011;12542;50.924;4.516;2023-12-28T11:59:47;15.77;;;3.20;;
24407;SDS011;12542;50.924;4.516;2023-12-28T12:02:19;19.10;;;3.95;;
24407;SDS011;12542;50.924;4.516;2023-12-28T12:04:45;17.02;;;3.60;;
24407;SDS011;12542;50.924;4.516;2023-12-28T12:07:11;19.83;;;3.90;;
24407;SDS011;12542;50.924;4.516;2023-12-28T12:09:36;24.30;;;12.63;;
24407;SDS011;12542;50.924;4.516;2023-12-28T12:12:02;22.38;;;8.25;;
24407;SDS011;12542;50.924;4.516;2023-12-28T12:14:29;24.60;;;9.05;;
24407;SDS011;12542;50.924;4.516;2023-12-28T12:16:58;64.20;;;32.08;;
24407;SDS011;12542;50.924;4.516;2023-12-28T12:19:25;18.88;;;2.75;;
24407;SDS011;12542;50.924;4.516;2023-12-28T12:21:52;15.55;;;2.70;;
24407;SDS011;12542;50.924;4.516;2023-12-28T12:24:18;13.23;;;3.00;;
24407;SDS011;12542;50.924;4.516;2023-12-28T12:26:45;16.88;;;2.70;;
24407;SDS011;12542;50.924;4.516;2023-12-28T12:29:11;19.73;;;4.40;;
24407;SDS011;12542;50.924;4.516;2023-12-28T12:31:37;14.95;;;3.30;;
24407;SDS011;12542;50.924;4.516;2023-12-28T12:34:06;17.88;;;3.15;;
24407;SDS011;12542;50.924;4.516;2023-12-28T12:36:33;16.95;;;2.80;;
24407;SDS011;12542;50.924;4.516;2023-12-28T12:38:59;18.77;;;8.07;;
24407;SDS011;12542;50.924;4.516;2023-12-28T12:41:25;25.60;;;10.55;;
24407;SDS011;12542;50.924;4.516;2023-12-28T12:43:51;13.27;;;3.15;;
24407;SDS011;12542;50.924;4.516;2023-12-28T12:46:17;19.17;;;6.65;;
24407;SDS011;12542;50.924;4.516;2023-12-28T12:48:53;28.73;;;15.48;;
24407;SDS011;12542;50.924;4.516;2023-12-28T12:51:20;22.38;;;7.20;;
24407;SDS011;12542;50.924;4.516;2023-12-28T12:53:46;25.73;;;11.15;;
24407;SDS011;12542;50.924;4.516;2023-12-28T12:56:12;13.88;;;4.53;;
24407;SDS011;12542;50.924;4.516;2023-12-28T12:58:38;19.90;;;8.90;;
24407;SDS011;12542;50.924;4.516;2023-12-28T13:01:04;26.92;;;9.48;;
24407;SDS011;12542;50.924;4.516;2023-12-28T13:03:30;23.40;;;9.52;;
24407;SDS011;12542;50.924;4.516;2023-12-28T13:05:56;65.10;;;39.97;;
24407;SDS011;12542;50.924;4.516;2023-12-28T13:08:22;16.75;;;5.78;;
24407;SDS011;12542;50.924;4.516;2023-12-28T13:10:48;34.63;;;19.58;;
24407;SDS011;12542;50.924;4.516;2023-12-28T13:13:15;34.67;;;11.88;;
24407;SDS011;12542;50.924;4.516;2023-12-28T13:15:40;23.63;;;9.30;;
24407;SDS011;12542;50.924;4.516;2023-12-28T13:18:06;45.47;;;23.10;;
24407;SDS011;12542;50.924;4.516;2023-12-28T13:20:32;22.70;;;8.57;;
24407;SDS011;12542;50.924;4.516;2023-12-28T13:22:58;23.83;;;6.55;;
24407;SDS011;12542;50.924;4.516;2023-12-28T13:25:23;24.42;;;6.15;;
24407;SDS011;12542;50.924;4.516;2023-12-28T13:27:49;12.43;;;3.53;;
24407;SDS011;12542;50.924;4.516;2023-12-28T13:30:15;21.55;;;8.75;;
24407;SDS011;12542;50.924;4.516;2023-12-28T13:32:40;13.82;;;2.95;;
24407;SDS011;12542;50.924;4.516;2023-12-28T13:35:06;36.97;;;20.08;;
24407;SDS011;12542;50.924;4.516;2023-12-28T13:37:32;23.65;;;9.40;;
24407;SDS011;12542;50.924;4.516;2023-12-28T13:40:00;21.95;;;7.63;;
24407;SDS011;12542;50.924;4.516;2023-12-28T13:42:26;21.83;;;7.53;;
24407;SDS011;12542;50.924;4.516;2023-12-28T13:44:52;15.27;;;3.85;;
24407;SDS011;12542;50.924;4.516;2023-12-28T13:47:17;27.40;;;6.57;;
24407;SDS011;12542;50.924;4.516;2023-12-28T13:49:43;25.25;;;8.18;;
24407;SDS011;12542;50.924;4.516;2023-12-28T13:52:09;42.58;;;14.55;;
24407;SDS011;12542;50.924;4.516;2023-12-28T13:54:34;17.00;;;5.53;;
24407;SDS011;12542;50.924;4.516;2023-12-28T13:57:00;11.02;;;3.45;;
24407;SDS011;12542;50.924;4.516;2023-12-28T13:59:26;24.38;;;5.35;;
24407;SDS011;12542;50.924;4.516;2023-12-28T14:01:51;17.08;;;5.28;;
24407;SDS011;12542;50.924;4.516;2023-12-28T14:04:17;16.05;;;4.13;;
24407;SDS011;12542;50.924;4.516;2023-12-28T14:06:43;23.77;;;7.22;;
24407;SDS011;12542;50.924;4.516;2023-12-28T14:09:08;29.42;;;10.15;;
24407;SDS011;12542;50.924;4.516;2023-12-28T14:11:37;26.02;;;8.70;;
24407;SDS011;12542;50.924;4.516;2023-12-28T14:14:02;21.63;;;9.32;;
24407;SDS011;12542;50.924;4.516;2023-12-28T14:16:28;21.83;;;4.88;;
24407;SDS011;12542;50.924;4.516;2023-12-28T14:18:54;22.10;;;5.90;;
24407;SDS011;12542;50.924;4.516;2023-12-28T14:21:20;22.98;;;5.45;;
24407;SDS011;12542;50.924;4.516;2023-12-28T14:23:46;18.98;;;3.72;;
24407;SDS011;12542;50.924;4.516;2023-12-28T14:26:12;23.60;;;6.25;;
24407;SDS011;12542;50.924;4.516;2023-12-28T14:28:44;22.42;;;7.35;;
24407;SDS011;12542;50.924;4.516;2023-12-28T14:31:11;22.15;;;6.82;;
24407;SDS011;12542;50.924;4.516;2023-12-28T14:33:37;22.13;;;5.80;;
24407;SDS011;12542;50.924;4.516;2023-12-28T14:36:15;31.15;;;10.88;;
24407;SDS011;12542;50.924;4.516;2023-12-28T14:38:51;18.83;;;4.85;;